Time;durP1;ratioP1;P1;durP2;ratioP2;P2;SDS_P1;SDS_P2;PMS_P1;PMS_P2;Temp;Humidity;BMP_temperature;BMP_pressure;BME280_temperature;BME280_humidity;BME280_pressure;Samples;Min_cycle;Max_cycle;Signal;HPM_P1;HPM_P2
2023/09/11 00:02:10;;;;;;;17.70;11.48;;;;;;;22.93;100.00;100444.19;8356359;28;20061;-57
2023/09/11 00:06:11;;;;;;;17.27;11.02;;;;;;;22.87;100.00;100458.84;8343679;28;20040;-58
2023/09/11 00:10:11;;;;;;;22.73;10.82;;;;;;;22.79;100.00;100445.34;8343202;28;20550;-58
2023/09/11 00:14:12;;;;;;;23.30;11.48;;;;;;;22.75;100.00;100440.50;8343344;28;20048;-59
2023/09/11 00:18:12;;;;;;;16.02;10.52;;;;;;;22.71;100.00;100430.97;8345253;28;20060;-58
2023/09/11 00:22:13;;;;;;;15.93;11.18;;;;;;;22.64;100.00;100424.66;8344865;28;20041;-61
2023/09/11 00:26:13;;;;;;;15.27;10.43;;;;;;;22.62;100.00;100424.88;8344522;28;20044;-60
2023/09/11 00:30:14;;;;;;;21.50;10.93;;;;;;;22.60;100.00;100421.47;8348153;28;20083;-59
2023/09/11 00:34:15;;;;;;;20.92;11.75;;;;;;;22.47;100.00;100432.53;8342213;28;20040;-59
2023/09/11 00:38:15;;;;;;;18.30;11.00;;;;;;;22.32;100.00;100417.38;8347817;28;20487;-59
2023/09/11 00:42:15;;;;;;;19.42;11.00;;;;;;;22.39;100.00;100413.53;8341255;28;20549;-58
2023/09/11 00:46:16;;;;;;;16.13;10.07;;;;;;;22.49;100.00;100413.88;8344615;28;20060;-59
2023/09/11 00:50:18;;;;;;;13.80;9.60;;;;;;;22.47;100.00;100420.66;8342901;28;20487;-63
2023/09/11 00:54:20;;;;;;;16.27;10.13;;;;;;;22.40;100.00;100415.22;8342880;28;20083;-63
2023/09/11 00:58:21;;;;;;;16.45;10.77;;;;;;;22.30;100.00;100409.34;8379386;28;20113;-63
2023/09/11 01:02:22;;;;;;;13.38;10.20;;;;;;;22.21;100.00;100399.63;8376236;28;20064;-63
2023/09/11 01:06:23;;;;;;;18.23;10.30;;;;;;;22.21;100.00;100398.75;8376429;28;20040;-63
2023/09/11 01:10:23;;;;;;;17.50;10.20;;;;;;;22.17;100.00;100398.34;8372631;28;20048;-64
2023/09/11 01:14:25;;;;;;;17.65;11.23;;;;;;;22.05;100.00;100400.09;8376307;28;20494;-65
2023/09/11 01:18:34;;;;;;;18.48;10.73;;;;;;;21.90;100.00;100391.28;8373997;28;20045;-65
2023/09/11 01:23:08;;;;;;;21.98;12.23;;;;;;;21.71;100.00;100399.53;8347781;28;20140;-59
2023/09/11 01:27:38;;;;;;;17.92;10.65;;;;;;;21.69;100.00;100394.25;8344698;28;20045;-60
2023/09/11 01:31:42;;;;;;;18.05;11.57;;;;;;;21.69;100.00;100404.41;8380559;28;20048;-60
2023/09/11 01:35:42;;;;;;;20.67;11.70;;;;;;;21.62;100.00;100396.16;8375114;28;20047;-59
2023/09/11 01:39:43;;;;;;;17.63;11.27;;;;;;;21.63;100.00;100389.63;8374594;28;20049;-59
2023/09/11 01:43:45;;;;;;;17.13;10.93;;;;;;;21.76;100.00;100399.75;8375783;28;20072;-59
2023/09/11 01:47:48;;;;;;;22.77;11.00;;;;;;;21.69;100.00;100391.50;8376041;28;20119;-60
2023/09/11 01:51:52;;;;;;;18.45;10.68;;;;;;;21.63;100.00;100388.75;8373366;28;20465;-59
2023/09/11 01:55:53;;;;;;;18.00;11.15;;;;;;;21.58;100.00;100403.16;8374445;28;20032;-60
2023/09/11 01:59:54;;;;;;;17.73;10.93;;;;;;;21.55;100.00;100392.56;8377131;28;20135;-60
2023/09/11 02:03:54;;;;;;;19.23;11.60;;;;;;;21.49;100.00;100390.69;8375277;28;20039;-60
2023/09/11 02:07:56;;;;;;;17.92;10.77;;;;;;;21.48;100.00;100385.41;8374858;28;20445;-60
2023/09/11 02:11:56;;;;;;;16.23;10.00;;;;;;;21.43;100.00;100390.72;8371350;28;20043;-60
2023/09/11 02:15:57;;;;;;;19.73;10.95;;;;;;;21.36;100.00;100385.22;8373246;28;20040;-59
2023/09/11 02:19:57;;;;;;;17.40;11.43;;;;;;;21.30;100.00;100377.81;8375381;28;20040;-60
2023/09/11 02:23:58;;;;;;;20.08;11.75;;;;;;;21.22;100.00;100381.63;8375542;28;20490;-62
2023/09/11 02:28:00;;;;;;;18.25;11.30;;;;;;;21.22;100.00;100389.00;8342136;28;20094;-62
2023/09/11 02:32:00;;;;;;;25.00;11.45;;;;;;;21.16;100.00;100376.13;8347834;28;20041;-60
2023/09/11 02:36:01;;;;;;;18.23;10.27;;;;;;;21.07;100.00;100377.38;8342834;28;20044;-60
2023/09/11 02:40:02;;;;;;;19.95;10.93;;;;;;;21.01;100.00;100375.47;8339083;28;20041;-60
2023/09/11 02:44:03;;;;;;;17.05;11.10;;;;;;;20.98;100.00;100376.75;8340459;28;20034;-60
2023/09/11 02:48:04;;;;;;;18.77;10.68;;;;;;;20.97;100.00;100376.97;8340832;28;20044;-60
2023/09/11 02:52:04;;;;;;;18.45;11.05;;;;;;;20.91;100.00;100372.28;8338831;28;20740;-60
2023/09/11 02:56:05;;;;;;;16.98;10.57;;;;;;;20.88;100.00;100367.19;8345327;28;20270;-60
2023/09/11 03:00:08;;;;;;;20.58;10.50;;;;;;;20.83;100.00;100375.25;8344451;28;20102;-60
2023/09/11 03:04:09;;;;;;;22.10;11.45;;;;;;;20.74;100.00;100371.00;8340287;28;20044;-59
2023/09/11 03:08:11;;;;;;;16.75;10.75;;;;;;;20.75;100.00;100357.06;8338624;28;20036;-59
2023/09/11 03:12:12;;;;;;;18.38;10.57;;;;;;;20.73;100.00;100352.81;8337678;28;20123;-60
2023/09/11 03:16:16;;;;;;;17.88;11.02;;;;;;;20.74;100.00;100354.53;8343051;28;20046;-59
2023/09/11 03:20:23;;;;;;;21.25;10.77;;;;;;;20.68;100.00;100355.38;8338384;28;20106;-60
2023/09/11 03:24:24;;;;;;;22.00;10.70;;;;;;;20.60;100.00;100347.31;8348396;28;20040;-63
2023/09/11 03:28:27;;;;;;;20.30;11.07;;;;;;;20.60;100.00;100350.91;8349137;28;20045;-63
2023/09/11 03:32:27;;;;;;;25.52;10.60;;;;;;;20.58;100.00;100342.03;8349975;28;20047;-60
2023/09/11 03:36:28;;;;;;;17.13;9.85;;;;;;;20.58;100.00;100346.66;8346667;28;20041;-59
2023/09/11 03:40:29;;;;;;;19.40;10.27;;;;;;;20.56;100.00;100341.38;8346584;28;20048;-60
2023/09/11 03:44:30;;;;;;;23.35;11.30;;;;;;;20.59;100.00;100342.88;8348399;28;20464;-60
2023/09/11 03:48:31;;;;;;;18.35;11.02;;;;;;;20.58;100.00;100349.41;8347079;28;20037;-60
2023/09/11 03:52:32;;;;;;;21.67;11.48;;;;;;;20.50;100.00;100335.88;8344534;28;20036;-59
2023/09/11 03:56:33;;;;;;;22.40;11.82;;;;;;;20.59;100.00;100340.13;8345116;28;20037;-59
2023/09/11 04:00:33;;;;;;;15.65;10.48;;;;;;;20.58;100.00;100338.41;8346712;28;20046;-59
2023/09/11 04:04:34;;;;;;;17.40;10.40;;;;;;;20.56;100.00;100337.81;8350090;28;20529;-59
2023/09/11 04:08:35;;;;;;;18.58;10.15;;;;;;;20.58;100.00;100338.41;8344424;28;20406;-58
2023/09/11 04:12:35;;;;;;;15.48;9.90;;;;;;;20.57;100.00;100326.59;8341849;28;20176;-58
2023/09/11 04:16:36;;;;;;;22.52;12.32;;;;;;;20.58;100.00;100321.94;8349954;28;20124;-58
2023/09/11 04:20:36;;;;;;;21.13;10.93;;;;;;;20.47;100.00;100319.81;8343182;28;20055;-59
2023/09/11 04:24:39;;;;;;;19.27;11.20;;;;;;;20.54;100.00;100326.16;8350958;28;20063;-58
2023/09/11 04:28:40;;;;;;;15.40;10.68;;;;;;;20.49;100.00;100320.47;8347012;28;20040;-58
2023/09/11 04:32:41;;;;;;;19.73;10.82;;;;;;;20.45;100.00;100316.44;8348097;28;20116;-58
2023/09/11 04:36:41;;;;;;;17.30;10.23;;;;;;;20.41;100.00;100309.66;8345668;28;20049;-58
2023/09/11 04:40:42;;;;;;;19.13;10.45;;;;;;;20.44;100.00;100301.03;8345524;28;20152;-59
2023/09/11 04:44:43;;;;;;;17.83;10.02;;;;;;;20.49;100.00;100307.56;8343952;28;20450;-58
2023/09/11 04:48:43;;;;;;;18.70;10.43;;;;;;;20.54;100.00;100310.53;8342185;28;20052;-59
2023/09/11 04:52:44;;;;;;;20.10;9.77;;;;;;;20.59;100.00;100309.91;8339160;28;20077;-65
2023/09/11 04:56:45;;;;;;;22.67;9.55;;;;;;;20.60;100.00;100306.97;8342558;28;20492;-66
2023/09/11 05:00:46;;;;;;;14.85;8.90;;;;;;;20.55;100.00;100316.84;8350110;28;20045;-66
2023/09/11 05:04:47;;;;;;;17.65;8.90;;;;;;;20.56;100.00;100324.06;8343318;28;20128;-65
2023/09/11 05:08:48;;;;;;;18.67;9.73;;;;;;;20.54;100.00;100326.16;8346861;28;20040;-66
2023/09/11 05:12:48;;;;;;;17.55;9.98;;;;;;;20.62;100.00;100320.47;8342071;28;20048;-66
2023/09/11 05:16:49;;;;;;;14.20;9.32;;;;;;;20.59;100.00;100323.66;8348040;28;20539;-66
2023/09/11 05:20:50;;;;;;;23.15;9.60;;;;;;;20.54;100.00;100321.53;8383438;28;20048;-66
2023/09/11 05:24:54;;;;;;;19.67;9.05;;;;;;;20.56;100.00;100324.06;8348958;28;20090;-65
2023/09/11 05:28:54;;;;;;;17.00;8.95;;;;;;;20.65;100.00;100317.31;8353812;28;20030;-66
2023/09/11 05:32:54;;;;;;;15.52;8.98;;;;;;;20.78;100.00;100328.31;8346346;28;20039;-66
2023/09/11 05:36:55;;;;;;;16.92;9.20;;;;;;;21.15;99.60;100331.28;8338003;28;20115;-66
2023/09/11 05:40:56;;;;;;;13.55;8.63;;;;;;;21.11;99.88;100329.19;8342035;28;20482;-66
2023/09/11 05:44:56;;;;;;;19.58;8.55;;;;;;;21.15;99.76;100327.69;8341900;28;20105;-67
2023/09/11 05:48:57;;;;;;;19.08;9.02;;;;;;;21.24;99.19;100337.41;8342729;28;20048;-66
2023/09/11 05:52:57;;;;;;;20.13;8.35;;;;;;;21.42;98.12;100337.59;8344428;28;20048;-59
2023/09/11 05:56:58;;;;;;;17.50;8.07;;;;;;;21.57;97.69;100346.44;8338907;28;20123;-59
2023/09/11 06:00:58;;;;;;;17.58;8.57;;;;;;;21.67;97.04;100344.09;8346726;28;20046;-60
2023/09/11 06:04:59;;;;;;;15.70;8.15;;;;;;;21.78;96.33;100348.97;8339413;28;20068;-65
2023/09/11 06:08:59;;;;;;;19.05;8.05;;;;;;;21.91;96.13;100346.16;8337572;28;20041;-65
2023/09/11 06:13:00;;;;;;;17.35;8.10;;;;;;;22.17;94.60;100351.53;8337536;28;20037;-58
2023/09/11 06:17:03;;;;;;;18.98;8.07;;;;;;;22.30;93.99;100348.72;8342535;28;20056;-60
2023/09/11 06:21:03;;;;;;;20.10;8.05;;;;;;;22.43;92.84;100359.66;8339927;28;20063;-59
2023/09/11 06:25:04;;;;;;;15.65;7.72;;;;;;;22.59;92.06;100356.41;8339099;28;20033;-65
2023/09/11 06:29:05;;;;;;;17.25;7.60;;;;;;;22.79;91.35;100359.88;8341882;28;20036;-66
2023/09/11 06:33:05;;;;;;;16.45;8.98;;;;;;;22.97;91.24;100359.09;8341739;28;20083;-66
2023/09/11 06:37:09;;;;;;;12.30;7.45;;;;;;;23.21;89.05;100356.31;8335295;28;20664;-67
2023/09/11 06:41:09;;;;;;;18.25;8.15;;;;;;;23.33;88.69;100361.16;8338600;28;20045;-67
2023/09/11 06:45:10;;;;;;;17.15;7.60;;;;;;;23.39;89.50;100365.75;8337499;28;20079;-66
2023/09/11 06:49:11;;;;;;;13.07;7.22;;;;;;;23.65;87.99;100351.66;8335502;28;20499;-67
2023/09/11 06:53:11;;;;;;;14.00;7.18;;;;;;;23.88;87.83;100349.09;8330728;28;20627;-63
2023/09/11 06:57:12;;;;;;;17.30;7.07;;;;;;;24.28;85.97;100350.28;8339941;28;20045;-67
2023/09/11 07:01:13;;;;;;;11.82;7.18;;;;;;;24.27;84.94;100340.28;8357455;28;20728;-66
2023/09/11 07:05:17;;;;;;;16.48;7.70;;;;;;;24.54;83.36;100344.38;8343716;28;20044;-59
2023/09/11 07:09:17;;;;;;;13.88;5.38;;;;;;;24.69;81.31;100342.06;8347307;28;20385;-60
2023/09/11 07:13:17;;;;;;;12.18;6.30;;;;;;;24.70;81.52;100341.00;8342803;28;20030;-60
2023/09/11 07:17:18;;;;;;;17.55;6.43;;;;;;;24.98;80.71;100335.63;8349543;28;20030;-60
2023/09/11 07:21:18;;;;;;;10.85;5.68;;;;;;;25.38;79.00;100331.13;8342206;28;20040;-60
2023/09/11 07:25:22;;;;;;;13.98;6.30;;;;;;;25.24;79.62;100332.41;8345936;28;20106;-60
2023/09/11 07:29:26;;;;;;;13.63;5.47;;;;;;;25.37;78.67;100331.38;8342110;28;20044;-62
2023/09/11 07:33:28;;;;;;;15.50;5.75;;;;;;;25.39;78.21;100338.34;8347457;28;20453;-60
2023/09/11 07:37:28;;;;;;;10.60;6.28;;;;;;;25.70;76.77;100340.72;8342533;28;20080;-60
2023/09/11 07:41:29;;;;;;;12.63;5.57;;;;;;;26.04;75.79;100325.97;8343289;28;20045;-60
2023/09/11 07:45:29;;;;;;;14.45;5.70;;;;;;;26.26;75.57;100329.75;8348483;28;20045;-64
2023/09/11 07:49:30;;;;;;;10.60;5.47;;;;;;;26.43;73.97;100329.78;8342182;28;20121;-64
2023/09/11 07:53:30;;;;;;;14.00;5.95;;;;;;;26.71;72.56;100338.97;8347530;28;20045;-61
2023/09/11 07:57:31;;;;;;;13.50;5.43;;;;;;;26.77;72.72;100337.13;8343735;28;20124;-60
2023/09/11 08:01:31;;;;;;;16.77;5.38;;;;;;;26.91;72.00;100337.66;8351866;28;20098;-60
2023/09/11 08:05:33;;;;;;;14.57;5.82;;;;;;;27.15;72.17;100339.19;8343019;28;20564;-61
2023/09/11 08:09:34;;;;;;;16.27;5.55;;;;;;;27.37;71.86;100342.88;8338015;28;20041;-60
2023/09/11 08:13:34;;;;;;;13.10;5.20;;;;;;;27.53;69.77;100342.06;8343306;28;20045;-66
2023/09/11 08:17:34;;;;;;;8.45;4.72;;;;;;;27.92;68.96;100338.19;8341676;28;20041;-67
2023/09/11 08:21:35;;;;;;;12.68;5.70;;;;;;;27.75;70.80;100352.09;8343956;28;20080;-67
2023/09/11 08:25:35;;;;;;;17.27;5.45;;;;;;;27.71;69.14;100350.91;8344673;28;20499;-67
2023/09/11 08:29:36;;;;;;;11.83;5.00;;;;;;;27.91;67.30;100344.84;8345694;28;20053;-67
2023/09/11 08:33:37;;;;;;;14.45;5.07;;;;;;;28.16;68.53;100342.38;8343290;28;20280;-63
2023/09/11 08:37:37;;;;;;;16.35;5.50;;;;;;;28.46;65.15;100345.56;8343186;28;20048;-59
2023/09/11 08:41:40;;;;;;;11.48;5.40;;;;;;;28.77;67.81;100344.78;8339700;28;20045;-57
2023/09/11 08:45:41;;;;;;;13.60;4.82;;;;;;;28.91;65.26;100337.69;8342002;28;20097;-62
2023/09/11 08:49:44;;;;;;;12.30;4.70;;;;;;;28.93;65.09;100329.88;8344404;28;20038;-62
2023/09/11 08:53:47;;;;;;;16.98;4.60;;;;;;;29.33;65.41;100335.81;8342833;28;20034;-61
2023/09/11 08:57:48;;;;;;;12.00;4.85;;;;;;;29.17;63.78;100327.59;8341217;28;20040;-57
2023/09/11 09:01:51;;;;;;;20.70;5.47;;;;;;;29.27;63.44;100325.75;8350050;28;20048;-56
2023/09/11 09:05:53;;;;;;;11.95;4.82;;;;;;;29.57;63.85;100323.19;8345954;28;20453;-58
2023/09/11 09:09:55;;;;;;;11.52;4.70;;;;;;;29.77;62.94;100322.50;8344443;28;20033;-58
2023/09/11 09:13:56;;;;;;;8.85;4.47;;;;;;;29.79;61.04;100329.47;8344058;28;20491;-57
2023/09/11 09:17:56;;;;;;;13.50;4.50;;;;;;;30.11;62.33;100313.44;8340310;28;20080;-58
2023/09/11 09:22:12;;;;;;;9.30;4.18;;;;;;;30.16;59.95;100310.66;8345113;28;20174;-58
2023/09/11 09:26:13;;;;;;;14.00;4.63;;;;;;;31.08;56.96;100329.34;8344584;28;20052;-57
2023/09/11 09:30:25;;;;;;;13.63;4.82;;;;;;;32.53;54.80;100323.38;8343209;28;20120;-56
2023/09/11 09:34:25;;;;;;;11.15;4.85;;;;;;;34.65;50.67;100325.78;8340297;28;20045;-62
2023/09/11 09:38:26;;;;;;;12.23;4.30;;;;;;;35.86;49.05;100322.63;8341566;28;20036;-64
2023/09/11 09:42:38;;;;;;;11.73;4.78;;;;;;;36.45;48.05;100316.88;8337585;28;20380;-64
2023/09/11 09:46:41;;;;;;;15.80;4.90;;;;;;;36.90;46.01;100313.00;8338808;28;20045;-65
2023/09/11 09:51:02;;;;;;;;;;;;;;;36.94;46.01;100316.88;8339077;28;20091;-64
2023/09/11 09:55:02;;;;;;;16.02;4.57;;;;;;;37.51;44.89;100317.97;8371665;28;19916;-65
2023/09/11 09:59:03;;;;;;;12.20;4.65;;;;;;;37.12;45.79;100318.69;8374307;28;20486;-63
2023/09/11 10:03:03;;;;;;;13.18;4.30;;;;;;;37.48;44.77;100308.13;8380562;28;20093;-63
2023/09/11 10:07:04;;;;;;;11.30;4.00;;;;;;;37.72;46.30;100312.63;8371852;28;20033;-67
2023/09/11 10:11:05;;;;;;;17.48;4.88;;;;;;;37.79;44.26;100312.97;8370812;28;20043;-64
2023/09/11 10:15:06;;;;;;;10.50;4.03;;;;;;;37.85;44.61;100308.84;8370162;28;20041;-63
2023/09/11 10:19:07;;;;;;;12.60;4.72;;;;;;;38.72;43.36;100312.47;8371256;28;20052;-63
2023/09/11 10:23:08;;;;;;;15.60;4.65;;;;;;;38.76;43.09;100307.81;8373076;28;20246;-65
2023/09/11 10:27:09;;;;;;;8.02;4.05;;;;;;;39.13;42.96;100304.31;8372754;28;20063;-64
2023/09/11 10:31:23;;;;;;;10.35;4.25;;;;;;;39.23;42.85;100298.31;8375609;28;20051;-65
2023/09/11 10:35:28;;;;;;;11.95;4.22;;;;;;;38.28;43.29;100290.09;8370420;28;20056;-63
2023/09/11 10:39:29;;;;;;;11.20;4.47;;;;;;;38.46;44.33;100283.31;8368993;28;20538;-65
2023/09/11 10:43:31;;;;;;;11.50;4.15;;;;;;;38.52;43.25;100287.63;8343294;28;20053;-64
2023/09/11 10:47:31;;;;;;;9.75;3.80;;;;;;;39.86;41.81;100289.84;8337482;28;20102;-64
2023/09/11 10:51:33;;;;;;;21.30;4.25;;;;;;;39.57;42.74;100298.25;8337902;28;20064;-64
2023/09/11 10:55:34;;;;;;;12.60;4.63;;;;;;;40.26;41.81;100290.34;8339215;28;20406;-59
2023/09/11 10:59:35;;;;;;;13.93;5.55;;;;;;;39.81;42.67;100284.34;8336852;28;20045;-58
2023/09/11 11:03:35;;;;;;;13.02;4.75;;;;;;;40.14;42.79;100279.72;8335330;28;20558;-58
2023/09/11 11:07:36;;;;;;;13.70;4.95;;;;;;;39.26;42.97;100263.69;8339311;28;20033;-65
2023/09/11 11:11:42;;;;;;;11.32;4.28;;;;;;;39.30;42.88;100267.50;8335816;28;20044;-65
2023/09/11 11:15:43;;;;;;;12.45;4.68;;;;;;;40.09;42.74;100271.38;8336268;28;20037;-58
2023/09/11 11:19:59;;;;;;;10.85;4.25;;;;;;;39.82;43.49;100260.53;8334898;28;20053;-58
2023/09/11 11:24:00;;;;;;;13.32;4.60;;;;;;;39.85;42.25;100261.88;8337399;28;20044;-58
2023/09/11 11:28:06;;;;;;;9.65;4.30;;;;;;;40.10;42.55;100255.22;8338344;28;20041;-58
2023/09/11 11:32:09;;;;;;;13.38;4.30;;;;;;;40.80;41.30;100253.25;8345431;28;20133;-59
2023/09/11 11:36:11;;;;;;;16.33;4.82;;;;;;;41.18;41.06;100238.03;8335479;28;20044;-59
2023/09/11 11:40:13;;;;;;;15.43;4.60;;;;;;;41.05;41.62;100231.47;8339919;28;20036;-58
2023/09/11 11:44:14;;;;;;;9.55;4.22;;;;;;;40.78;41.56;100240.59;8340432;28;20392;-58
2023/09/11 11:48:15;;;;;;;17.65;4.80;;;;;;;39.27;43.20;100234.19;8347751;28;20033;-65
2023/09/11 11:52:15;;;;;;;16.48;5.15;;;;;;;38.69;43.35;100237.59;8343151;28;20041;-64
2023/09/11 11:56:16;;;;;;;15.35;4.93;;;;;;;40.35;43.45;100238.09;8347118;28;20064;-62
2023/09/11 12:00:16;;;;;;;8.02;4.20;;;;;;;41.17;41.03;100242.06;8346912;28;20076;-62
2023/09/11 12:04:17;;;;;;;11.93;4.43;;;;;;;39.18;43.36;100239.09;8342652;28;20088;-62
2023/09/11 12:08:17;;;;;;;12.93;4.88;;;;;;;38.87;43.87;100239.25;8341346;28;20072;-59
2023/09/11 12:12:18;;;;;;;20.27;4.65;;;;;;;38.66;43.49;100243.13;8337133;28;20468;-58
2023/09/11 12:16:19;;;;;;;10.75;4.50;;;;;;;38.37;44.18;100240.06;8348297;28;20044;-62
2023/09/11 12:20:22;;;;;;;9.57;4.38;;;;;;;37.81;45.43;100242.91;8343759;28;20040;-63
2023/09/11 12:24:22;;;;;;;9.20;4.40;;;;;;;38.69;45.38;100248.09;8342651;28;20562;-63
2023/09/11 12:28:24;;;;;;;14.35;4.43;;;;;;;38.57;45.01;100245.09;8346154;28;20423;-59
2023/09/11 12:32:24;;;;;;;20.10;5.90;;;;;;;36.88;47.02;100235.53;8341206;28;20049;-57
2023/09/11 12:36:25;;;;;;;13.27;5.05;;;;;;;35.92;48.30;100228.50;8347266;28;20562;-57
2023/09/11 12:40:26;;;;;;;13.45;5.60;;;;;;;35.01;49.74;100231.38;8342780;28;20490;-58
2023/09/11 12:44:26;;;;;;;10.15;4.82;;;;;;;34.52;51.09;100226.28;8345377;28;20044;-58
2023/09/11 12:48:27;;;;;;;14.75;5.15;;;;;;;33.67;52.04;100225.41;8339701;28;20045;-57
2023/09/11 12:52:27;;;;;;;7.57;4.38;;;;;;;33.54;52.41;100222.53;8341279;28;20048;-58
2023/09/11 12:56:28;;;;;;;8.90;4.68;;;;;;;33.69;52.48;100216.69;8344506;28;20049;-58
2023/09/11 13:00:31;;;;;;;8.77;4.47;;;;;;;33.44;51.99;100203.84;8346033;28;20041;-57
2023/09/11 13:04:33;;;;;;;9.77;4.47;;;;;;;33.36;51.82;100212.03;8371628;28;20135;-58
2023/09/11 13:08:33;;;;;;;14.65;5.00;;;;;;;33.20;51.14;100205.75;8374341;28;20123;-58
2023/09/11 13:12:34;;;;;;;7.38;4.65;;;;;;;33.18;51.14;100198.78;8372168;28;20056;-58
2023/09/11 13:16:34;;;;;;;8.88;4.97;;;;;;;33.55;51.50;100201.75;8372941;28;20045;-64
2023/09/11 13:20:35;;;;;;;8.20;3.78;;;;;;;33.35;50.67;100193.53;8373996;28;20410;-64
2023/09/11 13:24:35;;;;;;;11.15;4.78;;;;;;;33.43;50.82;100196.56;8371696;28;20055;-65
2023/09/11 13:28:36;;;;;;;13.05;5.05;;;;;;;33.54;51.75;100192.50;8372654;28;20033;-65
2023/09/11 13:32:37;;;;;;;11.45;4.80;;;;;;;33.35;50.62;100187.94;8373814;28;20118;-64
2023/09/11 13:36:38;;;;;;;7.80;4.22;;;;;;;33.53;50.90;100196.44;8374092;28;20044;-58
2023/09/11 13:40:38;;;;;;;11.05;4.63;;;;;;;33.36;51.98;100198.84;8369911;28;20136;-58
2023/09/11 13:44:39;;;;;;;11.65;4.70;;;;;;;33.37;53.03;100196.91;8371378;28;20639;-59
2023/09/11 13:48:39;;;;;;;12.20;4.80;;;;;;;33.33;52.62;100190.22;8371485;28;20045;-63
2023/09/11 13:52:40;;;;;;;13.02;4.85;;;;;;;33.35;53.85;100182.31;8372912;28;20048;-63
2023/09/11 13:56:40;;;;;;;17.40;5.00;;;;;;;33.24;52.13;100176.00;8373637;28;20052;-65
2023/09/11 14:00:41;;;;;;;11.93;4.90;;;;;;;33.23;54.40;100179.94;8372565;28;20044;-66
2023/09/11 14:04:41;;;;;;;9.35;4.55;;;;;;;33.13;52.05;100180.06;8371561;28;20040;-66
2023/09/11 14:08:42;;;;;;;11.88;4.90;;;;;;;33.19;51.97;100176.06;8371165;28;20453;-64
2023/09/11 14:12:42;;;;;;;10.38;4.55;;;;;;;33.21;52.18;100170.16;8369493;28;20358;-65
2023/09/11 14:16:42;;;;;;;14.73;4.80;;;;;;;33.03;52.42;100174.56;8371690;28;20043;-65
2023/09/11 14:20:43;;;;;;;7.15;4.40;;;;;;;32.92;52.91;100173.00;8369072;28;20080;-67
2023/09/11 14:24:44;;;;;;;11.38;4.95;;;;;;;32.90;54.62;100174.44;8372085;28;20126;-66
2023/09/11 14:28:44;;;;;;;9.60;4.70;;;;;;;32.91;54.34;100185.34;8367623;28;20029;-67
2023/09/11 14:32:44;;;;;;;13.43;4.97;;;;;;;32.91;53.16;100174.13;8376015;28;20283;-66
2023/09/11 14:36:45;;;;;;;9.65;5.03;;;;;;;32.96;52.51;100174.06;8371670;28;20301;-60
2023/09/11 14:40:46;;;;;;;9.57;4.75;;;;;;;32.83;52.75;100163.53;8368068;28;20045;-60
2023/09/11 14:44:46;;;;;;;10.60;4.85;;;;;;;32.90;52.79;100169.63;8370279;28;20040;-60
2023/09/11 14:48:54;;;;;;;9.02;4.90;;;;;;;32.83;53.56;100160.72;8375258;28;20040;-65
2023/09/11 14:52:55;;;;;;;9.07;4.53;;;;;;;32.75;53.52;100166.94;8380720;28;20120;-66
2023/09/11 14:56:55;;;;;;;6.82;4.35;;;;;;;32.66;53.40;100162.28;8380569;28;20049;-59
2023/09/11 15:00:56;;;;;;;14.23;5.57;;;;;;;32.66;54.64;100151.94;8373980;28;20052;-60
2023/09/11 15:04:57;;;;;;;9.38;5.35;;;;;;;32.55;55.53;100150.34;8382069;28;20051;-59
2023/09/11 15:08:58;;;;;;;9.32;4.82;;;;;;;32.40;54.83;100147.66;8364664;28;20071;-60
2023/09/11 15:12:58;;;;;;;7.13;4.70;;;;;;;32.33;55.30;100151.91;8367382;28;20048;-60
2023/09/11 15:16:59;;;;;;;11.38;4.72;;;;;;;32.22;55.26;100145.53;8389301;28;20046;-60
2023/09/11 15:21:00;;;;;;;13.65;5.10;;;;;;;32.17;54.83;100156.78;8381972;28;20052;-60
2023/09/11 15:25:00;;;;;;;8.48;4.65;;;;;;;32.26;54.65;100152.22;8373836;28;20035;-60
2023/09/11 15:29:01;;;;;;;6.78;4.30;;;;;;;32.22;53.49;100151.97;8376280;28;20075;-61
2023/09/11 15:33:02;;;;;;;6.95;4.30;;;;;;;32.21;54.24;100152.28;8376320;28;20494;-60
2023/09/11 15:37:02;;;;;;;11.02;5.10;;;;;;;32.14;54.55;100154.56;8388781;28;20294;-60
2023/09/11 15:41:03;;;;;;;7.30;4.30;;;;;;;32.08;53.96;100150.94;8386143;28;20044;-61
2023/09/11 15:45:04;;;;;;;10.50;4.28;;;;;;;32.06;55.10;100146.78;8388271;28;20067;-61
2023/09/11 15:49:05;;;;;;;11.30;5.03;;;;;;;31.93;56.29;100159.44;8388609;28;20033;-60
2023/09/11 15:53:05;;;;;;;9.25;5.38;;;;;;;31.95;56.72;100157.19;8388527;28;20040;-60
2023/09/11 15:57:06;;;;;;;9.43;5.03;;;;;;;31.88;57.42;100167.03;8389736;28;20048;-63
2023/09/11 16:01:06;;;;;;;8.02;4.93;;;;;;;31.75;57.84;100173.25;8389412;28;20090;-63
2023/09/11 16:05:07;;;;;;;13.82;5.07;;;;;;;31.60;57.40;100159.31;8386450;28;20093;-63
2023/09/11 16:09:07;;;;;;;7.03;4.75;;;;;;;31.60;57.59;100164.91;8378889;28;20502;-60
2023/09/11 16:13:08;;;;;;;10.45;4.60;;;;;;;31.59;56.53;100164.06;8380070;28;20123;-59
2023/09/11 16:17:08;;;;;;;8.88;4.20;;;;;;;31.60;55.59;100165.75;8375329;28;20494;-61
2023/09/11 16:21:09;;;;;;;6.70;4.47;;;;;;;31.64;55.66;100160.41;8371859;28;20094;-61
2023/09/11 16:25:09;;;;;;;6.32;4.30;;;;;;;31.69;55.58;100157.59;8377392;28;20044;-61
2023/09/11 16:29:10;;;;;;;6.93;4.38;;;;;;;31.59;56.22;100157.66;8371218;28;20037;-67
2023/09/11 16:33:10;;;;;;;7.67;4.30;;;;;;;31.47;56.71;100154.38;8373606;28;20033;-67
2023/09/11 16:37:13;;;;;;;7.88;4.40;;;;;;;31.45;56.40;100156.59;8369909;28;20287;-61
2023/09/11 16:41:14;;;;;;;6.38;4.07;;;;;;;31.38;56.86;100153.28;8367724;28;20065;-60
2023/09/11 16:45:15;;;;;;;11.75;4.28;;;;;;;31.28;57.30;100156.09;8373292;28;20039;-60
2023/09/11 16:49:19;;;;;;;7.57;4.97;;;;;;;31.13;59.22;100156.94;8371109;28;20024;-63
2023/09/11 16:53:19;;;;;;;12.65;4.53;;;;;;;30.93;59.12;100164.53;8371586;28;20086;-63
2023/09/11 16:57:20;;;;;;;8.80;5.28;;;;;;;30.73;59.93;100173.75;8371540;28;20040;-64
2023/09/11 17:01:20;;;;;;;15.93;4.80;;;;;;;30.55;60.02;100173.50;8376638;28;20045;-65
2023/09/11 17:05:21;;;;;;;7.97;4.15;;;;;;;30.43;60.04;100163.44;8368392;28;20456;-64
2023/09/11 17:09:21;;;;;;;11.02;4.75;;;;;;;30.27;60.32;100161.75;8369157;28;20037;-60
2023/09/11 17:13:22;;;;;;;11.13;5.10;;;;;;;30.17;60.12;100156.16;8368055;28;20037;-60
2023/09/11 17:17:22;;;;;;;6.32;4.15;;;;;;;29.88;63.09;100159.69;8373061;28;20106;-60
2023/09/11 17:21:23;;;;;;;16.23;5.93;;;;;;;29.45;65.17;100163.72;8369722;28;20036;-60
2023/09/11 17:25:23;;;;;;;9.07;5.18;;;;;;;29.53;63.59;100160.41;8372216;28;20056;-61
2023/09/11 17:29:27;;;;;;;8.85;4.82;;;;;;;29.52;63.08;100158.72;8369356;28;20419;-62
2023/09/11 17:33:27;;;;;;;10.38;4.60;;;;;;;29.33;64.66;100154.75;8380939;28;20182;-60
2023/09/11 17:37:28;;;;;;;10.68;5.10;;;;;;;29.05;66.30;100145.97;8368624;28;20045;-64
2023/09/11 17:41:29;;;;;;;9.48;4.80;;;;;;;28.91;67.05;100148.38;8366412;28;20048;-64
2023/09/11 17:45:29;;;;;;;10.30;4.80;;;;;;;28.78;67.38;100156.34;8371212;28;20121;-64
2023/09/11 17:49:30;;;;;;;5.85;4.55;;;;;;;28.92;66.40;100163.97;8372110;28;20482;-67
2023/09/11 17:53:30;;;;;;;12.27;5.57;;;;;;;29.02;65.22;100164.00;8375253;28;20071;-68
2023/09/11 17:57:31;;;;;;;7.93;4.50;;;;;;;29.11;65.43;100168.00;8372263;28;20341;-63
2023/09/11 18:01:31;;;;;;;7.75;5.28;;;;;;;28.97;66.42;100171.50;8375473;28;20135;-67
2023/09/11 18:05:32;;;;;;;8.30;5.38;;;;;;;28.56;69.48;100175.94;8370863;28;20048;-68
2023/09/11 18:09:33;;;;;;;12.32;5.47;;;;;;;28.62;68.71;100174.88;8366416;28;20094;-68
2023/09/11 18:13:33;;;;;;;11.43;5.88;;;;;;;28.59;68.69;100175.41;8367949;28;20203;-68
2023/09/11 18:17:34;;;;;;;10.90;6.20;;;;;;;28.33;72.19;100170.72;8367257;28;20043;-67
2023/09/11 18:21:37;;;;;;;9.93;6.15;;;;;;;27.81;76.21;100177.94;8367847;28;20682;-67
2023/09/11 18:25:38;;;;;;;11.75;5.40;;;;;;;27.52;77.51;100179.25;8369222;28;20037;-67